Flight Track Log - Related Links

Times and Time Zones

All times are in EDT time to prevent confusion due to time zone crossing. See the UPS2292 flight status page for this flight to view local times or setup timezone preferences in your user account.

Time Position Orientation Groundspeed Altitude Reporting Facility
EDT Latitude Longitude Course Direction KTS MPH feet Rate Location/Type
Thu 04:59:33 PM 28.4062 -81.2979 133° Southeast 201 231 3,300  Level FlightAware
Thu 04:59:53 PM 28.3933 -81.2827 133° Southeast 229 264 4,400 2,462 Climbing FlightAware
Thu 05:00:12 PM 28.3769 -81.2627 133° Southeast 255 293 4,900 900 Climbing FlightAware
Thu 05:00:33 PM 28.3591 -81.2478 161° South 264 304 5,000 300 Climbing FlightAware
Thu 05:01:12 PM 28.3093 -81.2331 144° Southeast 281 323 5,200 1,831 Climbing FlightAware
Thu 05:01:32 PM 28.2948 -81.2104 111° Southeast 287 330 6,800 3,805 Climbing FlightAware
Thu 05:01:53 PM 28.2910 -81.1776 86° East 306 352 7,800 3,100 Climbing FlightAware
Thu 05:02:32 PM 28.3210 -81.1283 25° Northeast 309 356 9,900 3,900 Climbing FlightAware
Thu 05:02:53 PM 28.3503 -81.1228 356° North 308 354 11,700 5,122 Climbing FlightAware
Thu 05:03:13 PM 28.3777 -81.1299 345° North 316 364 13,400 3,951 Climbing FlightAware
Thu 05:03:34 PM 28.4096 -81.1406 343° North 341 392 14,400 2,941 Climbing FlightAware (KSFB)
Thu 05:04:04 PM 28.4536 -81.1567 342° North 352 405 15,900 2,656 Climbing FlightAware (KSFB)
Thu 05:04:35 PM 28.5051 -81.1755 342° North 384 442 17,100 3,049 Climbing FlightAware (KSFB)
Thu 05:05:05 PM 28.5559 -81.1936 343° North 395 455 19,000 3,900 Climbing FlightAware (KSFB)
Thu 05:05:35 PM 28.6121 -81.2136 343° North 406 467 21,000 3,582 Climbing FlightAware (KSFB)
Thu 05:06:12 PM 28.6768 -81.2366 342° North 423 487 23,000 3,529 Climbing FlightAware
Thu 05:06:43 PM 28.7320 -81.2564 342° North 432 497 25,000 3,871 Climbing FlightAware (KSFB)
Thu 05:07:14 PM 28.7972 -81.2798 343° North 429 494 27,000 3,273 Climbing FlightAware (KSFB)
Thu 05:07:49 PM 28.8608 -81.3027 342° North 436 502 28,600 2,486 Climbing FlightAware (KSFB)
Thu 05:08:24 PM 28.9311 -81.3282 342° North 450 518 29,900 1,890 Climbing FlightAware (KSFB)
Thu 05:09:02 PM 29.0075 -81.3558 342° North 462 532 30,900 957 Climbing FlightAware (KSFB)
Thu 05:09:33 PM 29.0690 -81.3770 346° North 472 543 31,000 85 Climbing FlightAware
Thu 05:10:13 PM 29.1591 -81.3959 354° North 478 550 31,000  Level FlightAware
Thu 05:10:52 PM 29.2429 -81.4035 356° North 483 556 31,000  Level FlightAware
Thu 05:11:33 PM 29.3365 -81.4120 355° North 484 557 31,000  Level FlightAware
Thu 05:12:12 PM 29.4233 -81.4204 355° North 481 554 31,000  Level FlightAware
Thu 05:12:52 PM 29.5091 -81.4287 355° North 480 552 31,000  Level FlightAware
Thu 05:13:32 PM 29.6020 -81.4377 355° North 479 551 31,000  Level FlightAware
Thu 05:14:13 PM 29.6917 -81.4465 355° North 475 547 31,000  Level FlightAware
Thu 05:14:52 PM 29.7641 -81.4536 355° North 477 549 31,000  Level FlightAware
Thu 05:15:31 PM 29.8498 -81.4621 355° North 480 552 31,000  Level FlightAware
Thu 05:16:11 PM 29.9508 -81.4720 355° North 481 554 31,000  Level FlightAware
Thu 05:16:49 PM 30.0348 -81.4802 355° North 481 554 31,000  Level FlightAware
Thu 05:17:21 PM 30.0833 -81.4883 355° North 480 552 31,000  Level Jacksonville Center
Thu 05:18:21 PM 30.2172 -81.4983 356° North 480 552 31,000  Level Jacksonville Center
Thu 05:19:21 PM 30.3508 -81.5086 356° North 480 552 31,000 -50 Level Jacksonville Center
Thu 05:20:21 PM 30.4989 -81.4894 North 480 552 30,900  Descending Jacksonville Center
Thu 05:21:21 PM 30.6344 -81.4731 North 480 552 31,000 50 Climbing Jacksonville Center
Thu 05:22:21 PM 30.7719 -81.4564 North 485 558 31,000 -50 Level Jacksonville Center
Thu 05:23:21 PM 30.9075 -81.4397 North 485 558 30,900  Descending Jacksonville Center
Thu 05:24:21 PM 31.0411 -81.4233 North 480 552 31,000 50 Climbing Jacksonville Center
Thu 05:25:21 PM 31.1742 -81.3894 12° North 480 552 31,000  Level Jacksonville Center
Thu 05:26:21 PM 31.3053 -81.3436 17° North 480 552 31,000  Level Jacksonville Center
Thu 05:27:21 PM 31.4217 -81.3003 18° North 485 558 31,000 -200 Level Jacksonville Center
Thu 05:28:21 PM 31.5672 -81.2589 14° North 485 558 30,600 -650 Descending Jacksonville Center
Thu 05:29:21 PM 31.7006 -81.2444 North 485 558 29,700 -950 Descending Jacksonville Center
Thu 05:30:21 PM 31.8258 -81.2347 North 485 558 28,700 -1,050 Descending Jacksonville Center
Thu 05:31:21 PM 31.9656 -81.2200 North 497 572 27,600 -1,050 Descending Jacksonville Center
Thu 05:32:21 PM 32.1053 -81.2100 North 497 572 26,600 -1,050 Descending Jacksonville Center
Thu 05:33:21 PM 32.2428 -81.1953 North 497 572 25,500 -1,050 Descending Jacksonville Center
Thu 05:34:21 PM 32.3806 -81.1828 North 497 572 24,500 -1,200 Descending Jacksonville Center
Thu 05:35:21 PM 32.5286 -81.1728 North 486 559 23,100 -2,100 Descending Jacksonville Center
Thu 05:36:21 PM 32.6600 -81.1603 North 478 550 20,300 -3,200 Descending Jacksonville Center
Thu 05:37:21 PM 32.7725 -81.1483 North 467 537 16,700 -3,600 Descending Jacksonville Center
Thu 05:38:21 PM 32.8892 -81.1386 North 438 504 13,100 -2,850 Descending Jacksonville Center
Thu 05:39:21 PM 33.0017 -81.1289 North 414 476 11,000 -1,050 Descending Jacksonville Center
Thu 05:40:21 PM 33.1103 -81.1194 North 402 463 11,000 50 Level Jacksonville Center
Thu 05:41:21 PM 33.2186 -81.1097 North 397 457 11,100  Climbing Jacksonville Center
Thu 05:42:21 PM 33.3167 -81.1031 North 374 430 11,000 -600 Descending Jacksonville Center
Thu 05:43:21 PM 33.4061 -81.0961 North 344 396 9,900 -1,400 Descending Jacksonville Center
Thu 05:44:21 PM 33.4878 -81.1069 354° North 310 357 8,200 -1,800 Descending Jacksonville Center
Thu 05:45:21 PM 33.5675 -81.1278 348° North 294 338 6,300 -1,800 Descending Jacksonville Center
Thu 05:46:21 PM 33.6450 -81.1511 346° North 288 331 4,600 -1,650 Descending Jacksonville Center
Thu 05:47:21 PM 33.7161 -81.1722 346° North 275 316 3,000 -1,100 Descending Jacksonville Center
Thu 05:48:21 PM 33.7936 -81.1931 347° North 275 316 2,400 -350 Descending Jacksonville Center
Thu 05:49:21 PM 33.8711 -81.2092 350° North 263 303 2,300 -100 Descending Jacksonville Center
Thu 05:51:00 PM 33.9333 -81.1167 328° Northwest  Level FlightAware
Thu 05:58:00 PM 33.9388 -81.1195 328° Northwest  Level Estimated
Thu 05:59:00 PM 33.9333 -81.1167 328° Northwest  Level FlightAware
Thu 06:00:00 PM 33.9388 -81.1195 328° Northwest  Level Estimated
Thu 06:01:00 PM 33.9333 -81.1167 328° Northwest  Level FlightAware

Login

Don't have an account? Register now (free) for customized features, flight alerts, and more!